Time;durP1;ratioP1;P1;durP2;ratioP2;P2;SDS_P1;SDS_P2;PMS_P1;PMS_P2;Temp;Humidity;BMP_temperature;BMP_pressure;BME280_temperature;BME280_humidity;BME280_pressure;Samples;Min_cycle;Max_cycle;Signal;HPM_P1;HPM_P2
2021/04/15 00:01:25;;;;;;;15.35;11.90;;;;;;;8.50;70.17;100203.55;1774101;79;21192;-69
2021/04/15 00:03:54;;;;;;;14.85;11.38;;;;;;;8.52;70.31;100200.63;1777493;78;21180;-70
2021/04/15 00:06:25;;;;;;;16.90;11.83;;;;;;;8.54;70.44;100199.32;1722635;81;21145;-70
2021/04/15 00:08:55;;;;;;;16.93;12.35;;;;;;;8.56;70.51;100195.89;1725039;81;21506;-70
2021/04/15 00:11:30;;;;;;;17.17;12.15;;;;;;;8.59;70.56;100195.39;1702175;82;21416;-69
2021/04/15 00:13:58;;;;;;;16.00;12.30;;;;;;;8.61;70.66;100191.92;1702937;82;21252;-69
2021/04/15 00:16:29;;;;;;;16.75;12.25;;;;;;;8.60;70.77;100192.99;1724411;81;21232;-69
2021/04/15 00:18:59;;;;;;;17.60;11.70;;;;;;;8.64;70.85;100199.41;1726851;82;21220;-69
2021/04/15 00:21:28;;;;;;;15.40;12.47;;;;;;;8.67;70.97;100196.78;1722076;82;21192;-70
2021/04/15 00:23:57;;;;;;;18.48;12.85;;;;;;;8.71;71.01;100194.41;1730625;81;21375;-70
2021/04/15 00:26:27;;;;;;;16.02;12.68;;;;;;;8.74;71.02;100192.58;1721781;82;21236;-70
2021/04/15 00:28:57;;;;;;;18.40;14.23;;;;;;;8.78;71.01;100195.00;1725726;82;21205;-69
2021/04/15 00:31:26;;;;;;;17.35;13.20;;;;;;;8.81;70.98;100189.17;1731131;82;21201;-69
2021/04/15 00:33:54;;;;;;;17.87;13.65;;;;;;;8.85;70.91;100190.27;1730013;82;21165;-69
2021/04/15 00:36:26;;;;;;;20.77;14.55;;;;;;;8.88;70.83;100188.42;1716987;82;21420;-70
2021/04/15 00:38:55;;;;;;;18.48;14.03;;;;;;;8.89;70.76;100184.19;1729206;82;21209;-69
2021/04/15 00:41:24;;;;;;;20.02;15.05;;;;;;;8.89;70.70;100186.05;1730233;81;21118;-71
2021/04/15 00:43:53;;;;;;;21.97;15.45;;;;;;;8.86;70.68;100183.36;1722114;81;21222;-70
2021/04/15 00:46:51;;;;;;;20.17;15.30;;;;;;;8.84;70.72;100184.13;1722748;82;21157;-69
2021/04/15 00:49:27;;;;;;;21.23;15.65;;;;;;;8.85;70.74;100184.93;1732537;82;21363;-69
2021/04/15 00:52:03;;;;;;;23.22;16.90;;;;;;;8.83;70.72;100181.73;1725126;81;21823;-71
2021/04/15 00:54:36;;;;;;;20.75;15.68;;;;;;;8.81;70.69;100182.52;1727062;82;21078;-69
2021/04/15 00:57:12;;;;;;;20.82;15.35;;;;;;;8.77;70.76;100181.42;1720477;82;21161;-69
2021/04/15 00:59:42;;;;;;;22.00;15.70;;;;;;;8.72;70.81;100184.03;1721329;82;21530;-68
2021/04/15 01:02:11;;;;;;;20.80;15.23;;;;;;;8.67;70.89;100184.27;1702815;81;21987;-69
2021/04/15 01:04:39;;;;;;;20.95;15.90;;;;;;;8.66;70.99;100176.02;1721733;82;21197;-69
2021/04/15 01:07:08;;;;;;;21.20;14.93;;;;;;;8.66;71.05;100180.53;1729874;82;21233;-69
2021/04/15 01:09:35;;;;;;;21.27;14.07;;;;;;;8.65;71.13;100174.91;1721284;82;22195;-69
2021/04/15 01:12:35;;;;;;;18.27;13.40;;;;;;;8.63;71.20;100181.84;1728507;82;21193;-70
2021/04/15 01:15:38;;;;;;;18.98;13.15;;;;;;;8.56;71.33;100181.78;1724512;82;21379;-70
2021/04/15 01:18:37;;;;;;;16.75;13.08;;;;;;;8.40;71.41;100174.17;1720659;82;21625;-68
2021/04/15 01:21:43;;;;;;;18.02;13.65;;;;;;;8.28;71.55;100175.61;1725481;82;21594;-69
2021/04/15 01:24:39;;;;;;;17.25;13.70;;;;;;;8.20;71.75;100171.55;1722932;82;21565;-69
2021/04/15 01:27:25;;;;;;;18.62;14.50;;;;;;;8.14;71.92;100172.55;1723700;82;21217;-70
2021/04/15 01:30:09;;;;;;;21.62;14.98;;;;;;;8.13;71.99;100172.28;1731373;82;22195;-69
2021/04/15 01:32:59;;;;;;;19.92;15.23;;;;;;;8.12;72.09;100163.20;1735666;82;21656;-71
2021/04/15 01:35:32;;;;;;;19.73;14.33;;;;;;;8.09;72.16;100174.34;1729737;82;21163;-69
2021/04/15 01:38:12;;;;;;;20.95;14.85;;;;;;;8.06;72.25;100167.69;1717574;82;21606;-69
2021/04/15 01:40:49;;;;;;;21.07;15.48;;;;;;;8.02;72.35;100169.22;1727167;82;21146;-68
2021/04/15 01:43:53;;;;;;;19.37;14.90;;;;;;;7.99;72.44;100163.89;1727827;81;21597;-69
2021/04/15 01:46:24;;;;;;;20.43;15.32;;;;;;;8.00;72.56;100160.70;1726914;82;21525;-69
2021/04/15 01:48:53;;;;;;;20.12;15.90;;;;;;;8.01;72.66;100164.96;1714994;82;21171;-69
2021/04/15 01:51:28;;;;;;;19.87;15.38;;;;;;;8.03;72.73;100160.20;1752103;81;21164;-69
2021/04/15 01:54:13;;;;;;;20.95;15.35;;;;;;;8.05;72.64;100162.61;1728818;81;22034;-70
2021/04/15 01:56:46;;;;;;;20.55;15.13;;;;;;;8.03;72.63;100158.87;1738975;82;21359;-69
2021/04/15 01:59:23;;;;;;;21.82;14.78;;;;;;;8.03;72.63;100160.20;1747004;82;21181;-69
2021/04/15 02:01:54;;;;;;;18.55;14.90;;;;;;;8.03;72.67;100157.55;1726122;82;21184;-70
2021/04/15 02:04:29;;;;;;;19.60;14.85;;;;;;;8.02;72.77;100162.56;1738605;81;21117;-69
2021/04/15 02:07:04;;;;;;;20.00;15.70;;;;;;;8.02;72.88;100153.79;1717319;82;21624;-69
2021/04/15 02:09:33;;;;;;;21.12;15.65;;;;;;;8.02;72.96;100149.27;1745101;82;21382;-69
2021/04/15 02:12:10;;;;;;;19.55;14.90;;;;;;;8.00;73.07;100148.73;1735980;82;21082;-69
2021/04/15 02:14:38;;;;;;;22.05;15.50;;;;;;;8.01;73.15;100144.22;1734529;82;21222;-71
2021/04/15 02:17:07;;;;;;;20.48;15.15;;;;;;;7.99;73.22;100147.11;1740278;82;21248;-69
2021/04/15 02:19:46;;;;;;;20.10;14.80;;;;;;;7.96;73.32;100137.80;1748243;82;21165;-69
2021/04/15 02:22:40;;;;;;;18.52;14.60;;;;;;;7.98;73.36;100137.53;1732244;82;21383;-70
2021/04/15 02:25:23;;;;;;;21.77;15.70;;;;;;;7.97;73.47;100142.05;1736752;82;21165;-70
2021/04/15 02:28:11;;;;;;;22.60;15.20;;;;;;;7.93;73.56;100138.30;1739409;82;21081;-69
2021/04/15 02:30:47;;;;;;;18.55;14.45;;;;;;;7.90;73.65;100145.44;1734608;82;21150;-69
2021/04/15 02:33:30;;;;;;;19.75;13.88;;;;;;;7.87;73.71;100138.48;1742783;82;21605;-69
2021/04/15 02:36:01;;;;;;;19.77;14.25;;;;;;;7.83;73.81;100139.52;1735254;82;21370;-68
2021/04/15 02:38:47;;;;;;;20.17;14.65;;;;;;;7.80;73.88;100145.83;1732382;82;21174;-70
2021/04/15 02:41:19;;;;;;;21.70;14.28;;;;;;;7.79;73.97;100145.55;1736756;82;21195;-69
2021/04/15 02:44:06;;;;;;;18.92;14.07;;;;;;;7.77;74.07;100145.02;1732552;82;21209;-70
2021/04/15 02:46:48;;;;;;;18.10;14.47;;;;;;;7.73;74.16;100145.52;1734093;82;21204;-69
2021/04/15 02:49:16;;;;;;;20.20;14.60;;;;;;;7.71;74.25;100146.28;1732198;81;21439;-69
2021/04/15 02:52:08;;;;;;;19.32;14.60;;;;;;;7.69;74.31;100147.56;1728023;82;22080;-70
2021/04/15 02:54:39;;;;;;;19.70;14.63;;;;;;;7.68;74.34;100143.31;1717761;82;21181;-70
2021/04/15 02:57:28;;;;;;;19.85;14.63;;;;;;;7.66;74.44;100141.41;1729819;82;21134;-68
2021/04/15 03:00:06;;;;;;;18.45;14.43;;;;;;;7.64;74.59;100143.53;1728960;82;22526;-70
2021/04/15 03:02:51;;;;;;;21.35;15.45;;;;;;;7.64;74.72;100136.89;1731690;82;21445;-69
2021/04/15 03:05:22;;;;;;;21.65;15.93;;;;;;;7.66;74.82;100142.75;1727971;82;21582;-68
2021/04/15 03:07:55;;;;;;;21.17;15.68;;;;;;;7.69;74.88;100139.06;1727846;82;21269;-69
2021/04/15 03:10:32;;;;;;;21.25;15.65;;;;;;;7.71;74.89;100134.84;1725063;82;21594;-70
2021/04/15 03:13:15;;;;;;;19.02;14.40;;;;;;;7.72;74.87;100137.23;1727684;82;21134;-69
2021/04/15 03:15:51;;;;;;;19.77;14.55;;;;;;;7.72;74.84;100136.44;1734479;80;21208;-70
2021/04/15 03:18:36;;;;;;;21.70;14.90;;;;;;;7.68;74.87;100142.78;1734512;82;21661;-69
2021/04/15 03:21:32;;;;;;;22.40;15.20;;;;;;;7.65;74.91;100150.45;1685083;82;21142;-69
2021/04/15 03:24:14;;;;;;;20.68;15.03;;;;;;;7.60;74.98;100145.89;1731634;82;21215;-69
2021/04/15 03:27:14;;;;;;;18.92;15.25;;;;;;;7.56;75.02;100147.41;1730374;82;21154;-69
2021/04/15 03:29:56;;;;;;;21.30;15.65;;;;;;;7.44;75.12;100146.74;1734254;82;21467;-69
2021/04/15 03:33:11;;;;;;;19.57;15.90;;;;;;;7.37;75.31;100141.61;1737832;82;21161;-70
2021/04/15 03:36:05;;;;;;;20.23;15.10;;;;;;;7.35;75.39;100144.22;1722978;82;21208;-69
2021/04/15 03:38:42;;;;;;;18.35;14.58;;;;;;;7.33;75.52;100144.45;1724099;82;21213;-70
2021/04/15 03:41:14;;;;;;;23.00;15.25;;;;;;;7.31;75.58;100144.44;1723794;82;21233;-69
2021/04/15 03:43:50;;;;;;;22.22;15.58;;;;;;;7.29;75.70;100152.11;1731165;82;21363;-69
2021/04/15 03:46:35;;;;;;;19.90;16.02;;;;;;;7.31;75.77;100152.41;1730234;81;21216;-70
2021/04/15 03:49:18;;;;;;;23.55;16.17;;;;;;;7.29;75.88;100160.08;1734372;82;21577;-70
2021/04/15 03:51:48;;;;;;;;;;;;;;;7.28;75.98;100157.16;1738571;82;21157;-69
2021/04/15 03:54:20;;;;;;;19.50;16.15;;;;;;;7.28;76.12;100158.48;1740864;82;20292;-70
2021/04/15 03:56:52;;;;;;;22.17;17.00;;;;;;;7.27;76.31;100160.04;1727451;82;21366;-70
2021/04/15 03:59:37;;;;;;;22.70;16.97;;;;;;;7.28;76.51;100160.34;1729115;82;21233;-69
2021/04/15 04:02:09;;;;;;;19.95;16.73;;;;;;;7.32;76.71;100156.66;1728098;82;21184;-70
2021/04/15 04:04:54;;;;;;;22.93;16.32;;;;;;;7.35;76.92;100156.17;1713627;82;21640;-70
2021/04/15 04:07:33;;;;;;;19.95;16.50;;;;;;;7.44;77.05;100156.04;1732759;82;21236;-71
2021/04/15 04:10:10;;;;;;;22.58;16.45;;;;;;;7.56;77.08;100158.56;1724778;81;21679;-70
2021/04/15 04:12:47;;;;;;;23.95;17.17;;;;;;;7.64;77.07;100157.62;1736913;82;21133;-69
2021/04/15 04:15:27;;;;;;;20.55;17.05;;;;;;;7.74;77.07;100158.27;1730284;82;21179;-70
2021/04/15 04:18:18;;;;;;;20.57;16.05;;;;;;;7.84;77.05;100158.92;1732717;82;21144;-69
2021/04/15 04:20:48;;;;;;;23.40;16.60;;;;;;;7.95;77.10;100167.28;1654448;83;21190;-70
2021/04/15 04:23:58;;;;;;;20.82;15.68;;;;;;;8.06;76.98;100159.71;1730893;82;21405;-70
2021/04/15 04:26:39;;;;;;;23.40;17.70;;;;;;;8.12;76.83;100158.69;1727982;82;21228;-69
2021/04/15 04:29:29;;;;;;;24.90;18.05;;;;;;;8.21;76.79;100157.19;1727208;82;21121;-69
2021/04/15 04:31:59;;;;;;;27.17;18.48;;;;;;;8.31;76.64;100155.69;1739122;82;21649;-69
2021/04/15 04:34:27;;;;;;;24.75;17.80;;;;;;;8.41;76.48;100155.81;1725679;81;21210;-70
2021/04/15 04:36:55;;;;;;;25.50;17.65;;;;;;;8.51;76.37;100156.44;1725317;82;21372;-70
2021/04/15 04:39:24;;;;;;;24.55;17.25;;;;;;;8.58;76.25;100155.16;1698534;82;21692;-70
2021/04/15 04:42:28;;;;;;;25.00;17.60;;;;;;;8.65;76.09;100150.95;1683526;82;21137;-69
2021/04/15 04:44:59;;;;;;;25.82;17.27;;;;;;;8.71;75.99;100151.81;1727408;82;21711;-70
2021/04/15 04:48:13;;;;;;;26.05;17.55;;;;;;;8.80;75.91;100152.95;1732753;81;21144;-70
2021/04/15 04:50:52;;;;;;;23.02;17.62;;;;;;;8.87;75.83;100150.87;1721581;82;21672;-70
2021/04/15 04:53:33;;;;;;;24.05;17.20;;;;;;;8.93;75.74;100152.52;1724033;82;21196;-70
2021/04/15 04:56:44;;;;;;;26.05;17.87;;;;;;;8.99;75.56;100150.17;1728258;82;28825;-69
2021/04/15 04:59:22;;;;;;;24.05;17.35;;;;;;;9.08;75.34;100153.13;1728135;82;21152;-69
2021/04/15 05:01:51;;;;;;;22.37;16.30;;;;;;;9.14;75.11;100141.45;1700447;82;21659;-69
2021/04/15 05:04:20;;;;;;;21.90;17.70;;;;;;;9.22;74.88;100140.19;1730833;82;21374;-69
2021/04/15 05:06:50;;;;;;;22.55;17.23;;;;;;;9.29;74.70;100144.75;1724950;82;21221;-69
2021/04/15 05:09:29;;;;;;;23.67;17.55;;;;;;;9.34;74.54;100140.77;1731005;82;21727;-69
2021/04/15 05:12:13;;;;;;;24.53;17.47;;;;;;;9.47;74.37;100146.96;1796193;79;22807;-69
2021/04/15 05:14:43;;;;;;;21.07;16.62;;;;;;;9.52;74.03;100151.00;1765703;80;21782;-69
2021/04/15 05:17:28;;;;;;;21.37;16.77;;;;;;;9.63;73.59;100144.64;1798034;79;21357;-69
2021/04/15 05:20:02;;;;;;;20.92;15.50;;;;;;;9.73;73.23;100144.41;1773903;80;21125;-70
2021/04/15 05:22:38;;;;;;;22.20;15.85;;;;;;;9.83;72.92;100143.91;1777018;79;21126;-69
2021/04/15 05:25:10;;;;;;;21.35;16.95;;;;;;;9.91;72.65;100149.29;1784351;80;21219;-70
2021/04/15 05:27:39;;;;;;;21.23;16.65;;;;;;;9.99;72.35;100148.77;1771268;79;21144;-69
2021/04/15 05:30:20;;;;;;;21.55;16.15;;;;;;;10.13;72.06;100150.94;1748289;79;22318;-69
2021/04/15 05:32:49;;;;;;;18.82;15.38;;;;;;;10.25;71.59;100147.49;1782752;79;21200;-69
2021/04/15 05:35:22;;;;;;;20.10;15.38;;;;;;;10.38;71.09;100144.88;1776983;80;21176;-69
2021/04/15 05:37:52;;;;;;;20.55;15.70;;;;;;;10.47;70.65;100147.30;1785657;78;21136;-69
2021/04/15 05:40:20;;;;;;;26.68;16.67;;;;;;;10.59;70.29;100147.02;1783154;78;21172;-69
2021/04/15 05:42:57;;;;;;;21.68;16.82;;;;;;;10.71;69.96;100143.55;1749054;80;21368;-70
2021/04/15 05:45:26;;;;;;;19.45;15.85;;;;;;;10.82;69.58;100139.80;1774636;78;21646;-71
2021/04/15 05:48:04;;;;;;;20.75;15.80;;;;;;;10.93;68.98;100142.73;1781149;78;21269;-70
2021/04/15 05:50:49;;;;;;;18.40;15.45;;;;;;;11.01;68.28;100138.71;1779655;78;21231;-70
2021/04/15 05:53:28;;;;;;;20.88;15.70;;;;;;;11.12;67.56;100136.81;1778939;78;21188;-69
2021/04/15 05:56:13;;;;;;;21.40;15.77;;;;;;;11.21;66.90;100139.20;1785812;79;21382;-70
2021/04/15 05:59:07;;;;;;;17.53;14.80;;;;;;;11.21;66.88;100134.66;1785954;78;21453;-70
2021/04/15 06:01:57;;;;;;;19.50;15.80;;;;;;;11.22;66.90;100129.59;1773699;79;21299;-70
2021/04/15 06:04:29;;;;;;;22.40;15.90;;;;;;;11.21;66.73;100129.85;1788485;78;21195;-70
2021/04/15 06:06:56;;;;;;;;;;;;;;;11.22;66.34;100124.76;1791995;79;21446;-70
2021/04/15 06:09:24;;;;;;;15.73;13.40;;;;;;;11.25;66.23;100122.88;1772186;78;22089;-70
2021/04/15 06:12:09;;;;;;;19.57;16.07;;;;;;;11.25;65.87;100125.05;1786824;78;21613;-69
2021/04/15 06:14:50;;;;;;;17.57;14.27;;;;;;;11.26;65.80;100127.97;1780270;80;21466;-72
2021/04/15 06:17:37;;;;;;;19.77;14.97;;;;;;;11.37;65.59;100130.61;1785721;80;21419;-71
2021/04/15 06:20:25;;;;;;;18.53;15.30;;;;;;;11.40;64.51;100127.39;1787596;78;21443;-71
2021/04/15 06:22:57;;;;;;;18.23;14.37;;;;;;;11.34;64.18;100128.48;1782899;78;21972;-70
2021/04/15 06:25:27;;;;;;;;;;;;;;;11.43;64.37;100130.87;1787034;78;21517;-69
2021/04/15 06:28:00;;;;;;;16.00;12.97;;;;;;;11.59;64.17;100132.95;1781501;79;20238;-70
2021/04/15 06:30:42;;;;;;;16.10;14.33;;;;;;;11.73;63.71;100130.73;1784090;78;21440;-70
2021/04/15 06:33:17;;;;;;;;;;;;;;;11.88;63.29;100129.11;1779094;78;21157;-70
2021/04/15 06:35:47;;;;;;;16.77;13.43;;;;;;;12.04;62.88;100124.45;1785443;78;21127;-70
2021/04/15 06:38:30;;;;;;;19.00;13.80;;;;;;;12.15;62.49;100121.98;1799927;78;21884;-70
2021/04/15 06:41:43;;;;;;;18.27;14.53;;;;;;;12.23;61.37;100121.92;1771345;79;21370;-69
2021/04/15 06:45:00;;;;;;;18.93;14.33;;;;;;;12.28;61.49;100128.05;1810711;79;22691;-69
2021/04/15 06:47:56;;;;;;;18.23;14.40;;;;;;;12.27;61.11;100125.64;1762741;80;21181;-70
2021/04/15 06:50:36;;;;;;;17.83;14.47;;;;;;;12.37;60.49;100129.58;1777279;80;21445;-69
2021/04/15 06:53:36;;;;;;;17.70;14.27;;;;;;;12.36;60.61;100126.11;1766987;80;21240;-71
2021/04/15 06:56:28;;;;;;;23.90;14.37;;;;;;;12.55;60.69;100127.58;1722335;83;21551;-69
2021/04/15 06:59:11;;;;;;;16.37;13.65;;;;;;;12.75;60.21;100121.24;1725141;81;21401;-70
2021/04/15 07:02:10;;;;;;;19.33;14.97;;;;;;;12.94;59.64;100125.36;1735683;81;21160;-70
2021/04/15 07:04:48;;;;;;;17.77;14.47;;;;;;;13.12;59.22;100126.52;1719941;81;22309;-70
2021/04/15 07:07:26;;;;;;;17.83;14.07;;;;;;;13.34;58.97;100122.82;1698986;81;21417;-70
2021/04/15 07:10:28;;;;;;;18.07;13.90;;;;;;;13.54;58.37;100119.09;1720171;82;21388;-70
2021/04/15 07:13:24;;;;;;;17.37;13.63;;;;;;;13.73;57.72;100117.80;1718224;81;21506;-70
2021/04/15 07:16:16;;;;;;;15.40;12.67;;;;;;;14.27;56.77;100123.20;1720222;81;21458;-70
2021/04/15 07:19:16;;;;;;;13.67;10.50;;;;;;;14.61;55.29;100118.16;1745107;81;21465;-70
2021/04/15 07:22:25;;;;;;;14.63;11.10;;;;;;;14.75;53.14;100112.25;1711118;82;21728;-71
2021/04/15 07:25:50;;;;;;;20.00;14.10;;;;;;;14.75;53.14;100112.25;1717074;81;21837;-69
2021/04/15 07:29:00;;;;;;;16.17;12.47;;;;;;;14.92;53.21;100108.20;1728704;81;22381;-70
2021/04/15 07:32:19;;;;;;;12.50;10.50;;;;;;;15.20;52.22;100109.83;1721407;81;21904;-69
2021/04/15 07:35:26;;;;;;;12.43;8.83;;;;;;;15.49;51.13;100106.02;1726460;82;21402;-69
2021/04/15 07:38:16;;;;;;;10.90;8.70;;;;;;;15.77;50.17;100114.90;1720625;81;21939;-70
2021/04/15 07:41:22;;;;;;;9.93;8.00;;;;;;;16.11;49.17;100103.62;1807347;78;22726;-72
2021/04/15 07:44:11;;;;;;;11.60;8.47;;;;;;;16.57;47.90;100105.78;1784692;78;21136;-74
2021/04/15 07:47:19;;;;;;;9.00;6.43;;;;;;;16.57;47.90;100105.78;1748404;78;21333;-78
2021/04/15 07:50:22;;;;;;;9.37;6.80;;;;;;;16.77;47.37;100104.50;1740002;79;21230;-76
2021/04/15 07:53:21;;;;;;;9.67;7.73;;;;;;;16.96;47.12;100111.02;1783897;79;21575;-75
2021/04/15 07:56:20;;;;;;;12.23;8.60;;;;;;;16.81;45.38;100106.28;1804611;78;21178;-71
2021/04/15 07:59:08;;;;;;;9.60;7.13;;;;;;;16.77;46.08;100107.98;1797483;79;21249;-72
2021/04/15 08:02:12;;;;;;;5.83;4.90;;;;;;;16.94;45.41;100104.58;1772087;79;21393;-78
2021/04/15 08:05:12;;;;;;;9.87;6.00;;;;;;;17.10;44.00;100099.57;1773110;79;22235;-78
2021/04/15 08:08:10;;;;;;;7.63;6.10;;;;;;;17.26;43.50;100094.55;1823462;78;21076;-80
2021/04/15 08:11:03;;;;;;;7.83;5.83;;;;;;;17.44;43.42;100093.51;1773798;80;21187;-79
2021/04/15 08:14:01;;;;;;;11.67;7.17;;;;;;;17.54;42.39;100094.56;1776954;80;21132;-79
2021/04/15 08:16:47;;;;;;;9.63;7.00;;;;;;;17.54;42.01;100093.20;1751103;79;21156;-84
2021/04/15 08:19:42;;;;;;;11.90;8.50;;;;;;;17.49;42.66;100089.30;1798530;79;21676;-71
2021/04/15 08:22:45;;;;;;;12.50;7.70;;;;;;;17.32;41.98;100089.26;1782998;78;21156;-77
2021/04/15 08:25:27;;;;;;;10.77;8.43;;;;;;;17.03;42.72;100089.78;1781515;78;21164;-80
2021/04/15 08:28:20;;;;;;;11.53;7.53;;;;;;;16.92;43.46;100081.18;1766663;80;21150;-81
2021/04/15 08:30:57;;;;;;;12.47;8.40;;;;;;;16.98;43.97;100083.16;1775688;80;21628;-81
2021/04/15 08:34:09;;;;;;;12.37;8.55;;;;;;;17.07;43.80;100077.25;1779055;78;21151;-80
2021/04/15 08:37:05;;;;;;;12.13;7.80;;;;;;;17.13;43.93;100077.92;1791518;80;21219;-80
2021/04/15 08:39:58;;;;;;;12.10;7.87;;;;;;;17.15;43.28;100076.51;1813357;78;21196;-79
2021/04/15 08:43:01;;;;;;;12.47;8.67;;;;;;;17.11;43.51;100077.69;1809752;78;21188;-76
2021/04/15 08:46:02;;;;;;;13.60;8.47;;;;;;;16.99;43.87;100076.69;1811257;77;21164;-81
2021/04/15 08:49:08;;;;;;;13.32;8.88;;;;;;;16.96;44.11;100071.34;1775881;79;21184;-79
2021/04/15 08:51:47;;;;;;;9.53;8.13;;;;;;;16.90;44.10;100073.94;1784176;78;21183;-80
2021/04/15 08:54:41;;;;;;;11.57;8.73;;;;;;;16.89;44.27;100072.36;1779756;79;21178;-80
2021/04/15 08:57:33;;;;;;;12.53;9.03;;;;;;;16.93;44.45;100077.36;1784446;80;21195;-81
2021/04/15 09:00:12;;;;;;;12.03;9.10;;;;;;;17.02;44.36;100072.80;1786405;79;21121;-78
2021/04/15 09:02:57;;;;;;;13.17;9.30;;;;;;;17.13;44.19;100071.17;1809274;77;21287;-79
2021/04/15 09:05:40;;;;;;;12.43;8.60;;;;;;;17.15;44.01;100073.02;1783430;79;21168;-79
2021/04/15 09:08:21;;;;;;;11.67;8.50;;;;;;;17.19;43.34;100064.53;1814116;78;21224;-81
2021/04/15 09:11:04;;;;;;;12.73;9.15;;;;;;;17.26;43.27;100071.05;1777962;78;21231;-82
2021/04/15 09:14:00;;;;;;;14.47;9.63;;;;;;;17.35;43.62;100069.73;1694526;80;21365;-82
2021/04/15 09:16:38;;;;;;;14.97;9.97;;;;;;;17.46;43.35;100063.48;1799162;78;21073;-83
2021/04/15 09:19:55;;;;;;;13.87;9.03;;;;;;;17.57;43.09;100070.16;1787418;78;21213;-81
2021/04/15 09:22:55;;;;;;;13.37;8.93;;;;;;;17.63;43.01;100069.46;1771227;80;21196;-81
2021/04/15 09:26:10;;;;;;;11.13;8.57;;;;;;;17.70;42.21;100063.85;1781891;80;21152;-82
2021/04/15 09:29:08;;;;;;;11.83;8.43;;;;;;;17.74;41.98;100066.71;1793997;78;21364;-81
2021/04/15 09:31:51;;;;;;;14.90;9.80;;;;;;;17.76;41.92;100057.19;1792867;78;21182;-82
2021/04/15 09:34:34;;;;;;;12.53;9.60;;;;;;;17.82;42.42;100052.43;1810403;78;21259;-82
2021/04/15 09:37:28;;;;;;;12.70;9.27;;;;;;;17.82;42.08;100051.08;1809774;78;21144;-80
2021/04/15 09:40:01;;;;;;;10.70;8.80;;;;;;;17.84;42.09;100054.83;1771260;79;21172;-80
2021/04/15 09:43:06;;;;;;;12.67;9.37;;;;;;;17.93;41.73;100055.07;1781705;80;21793;-82
2021/04/15 09:45:57;;;;;;;10.73;8.83;;;;;;;18.01;41.74;100050.20;1789463;78;21149;-80
2021/04/15 09:48:46;;;;;;;12.53;9.27;;;;;;;18.18;41.84;100056.16;1784066;79;21204;-82
2021/04/15 09:51:53;;;;;;;11.77;10.10;;;;;;;18.26;41.21;100053.19;1685965;80;21322;-82
2021/04/15 09:54:47;;;;;;;12.10;9.00;;;;;;;18.27;40.38;100047.48;1774714;80;21189;-82
2021/04/15 09:57:37;;;;;;;12.77;7.67;;;;;;;18.28;41.29;100050.97;1791391;79;21379;-80
2021/04/15 10:00:29;;;;;;;10.57;8.67;;;;;;;18.40;40.11;100052.47;1793456;79;21203;-79
2021/04/15 10:03:53;;;;;;;12.97;10.83;;;;;;;18.37;40.14;100054.45;1733949;79;21612;-83
2021/04/15 10:06:25;;;;;;;;;;;;;;;18.27;39.73;100051.53;1788301;79;21159;-82
2021/04/15 10:09:02;;;;;;;12.17;9.67;;;;;;;18.23;40.27;100047.89;1785305;79;20214;-78
2021/04/15 10:11:47;;;;;;;10.57;9.40;;;;;;;18.13;40.79;100049.58;1782000;78;21266;-81
2021/04/15 10:14:58;;;;;;;13.50;9.67;;;;;;;18.10;41.43;100042.10;1775091;79;21676;-80
2021/04/15 10:17:53;;;;;;;11.77;9.50;;;;;;;18.13;41.08;100042.00;1786167;79;21318;-78
2021/04/15 10:20:54;;;;;;;10.67;8.83;;;;;;;18.21;40.37;100042.00;1800520;79;21148;-80
2021/04/15 10:23:49;;;;;;;12.80;8.83;;;;;;;18.24;40.63;100040.00;1797373;78;21574;-80
2021/04/15 10:26:36;;;;;;;10.57;8.93;;;;;;;18.43;40.48;100042.36;1798799;78;23458;-70
2021/04/15 10:29:48;;;;;;;12.03;9.60;;;;;;;18.43;40.06;100038.30;1784571;80;21164;-70
2021/04/15 10:33:13;;;;;;;11.20;9.18;;;;;;;18.45;40.02;100044.16;1749754;80;21362;-69
2021/04/15 10:35:55;;;;;;;12.70;8.20;;;;;;;18.43;39.84;100036.95;1773802;78;21589;-70
2021/04/15 10:38:33;;;;;;;10.90;8.90;;;;;;;18.40;39.68;100041.65;1756506;81;21208;-72
2021/04/15 10:41:41;;;;;;;10.60;8.77;;;;;;;18.41;39.93;100044.58;1763039;80;21188;-70
2021/04/15 10:44:54;;;;;;;9.90;8.20;;;;;;;18.41;40.15;100041.88;1760390;80;21125;-71
2021/04/15 10:47:42;;;;;;;10.47;8.90;;;;;;;18.42;40.17;100048.08;1743910;81;21837;-69
2021/04/15 10:50:40;;;;;;;10.27;8.70;;;;;;;18.37;40.02;100049.05;1784303;80;21639;-70
2021/04/15 10:53:23;;;;;;;11.20;8.77;;;;;;;18.30;39.99;100053.37;1785037;80;21678;-69
2021/04/15 10:56:05;;;;;;;9.47;7.70;;;;;;;18.20;40.20;100053.94;1742526;81;21735;-69
2021/04/15 10:58:46;;;;;;;9.57;7.40;;;;;;;18.09;40.24;100049.95;1709134;83;21189;-68
2021/04/15 11:01:36;;;;;;;10.27;7.63;;;;;;;17.92;40.27;100053.46;1701672;83;22406;-69
2021/04/15 11:04:18;;;;;;;10.00;7.40;;;;;;;17.75;40.71;100049.38;1697634;82;21152;-69
2021/04/15 11:06:53;;;;;;;12.07;8.03;;;;;;;17.57;41.01;100054.78;1708961;82;21274;-69
2021/04/15 11:09:34;;;;;;;10.17;7.67;;;;;;;17.42;41.29;100050.37;1720575;83;21196;-69
2021/04/15 11:12:19;;;;;;;11.97;8.13;;;;;;;17.27;41.78;100057.00;1717256;83;21192;-68
2021/04/15 11:15:06;;;;;;;11.90;8.30;;;;;;;17.14;42.47;100056.56;1720459;83;21247;-69
2021/04/15 11:17:42;;;;;;;10.93;8.00;;;;;;;17.06;42.79;100056.23;1739668;81;21589;-69
2021/04/15 11:20:26;;;;;;;10.87;8.17;;;;;;;16.97;43.15;100058.09;1711713;82;21702;-69
2021/04/15 11:23:03;;;;;;;10.30;8.67;;;;;;;16.87;43.30;100059.72;1730706;82;21172;-69
2021/04/15 11:25:50;;;;;;;9.83;8.33;;;;;;;16.79;43.46;100058.59;1717377;82;21188;-69
2021/04/15 11:28:24;;;;;;;10.20;8.20;;;;;;;16.73;43.54;100064.39;1703358;83;21762;-68
2021/04/15 11:30:57;;;;;;;12.67;9.27;;;;;;;16.63;43.72;100062.76;1703925;83;21200;-70
2021/04/15 11:33:46;;;;;;;15.53;9.87;;;;;;;16.50;43.95;100059.59;1771220;80;21212;-69
2021/04/15 11:36:27;;;;;;;10.37;9.27;;;;;;;16.32;44.16;100054.63;1754712;80;21881;-69
2021/04/15 11:39:22;;;;;;;10.60;9.00;;;;;;;16.20;44.34;100058.45;1700389;83;21159;-69
2021/04/15 11:42:02;;;;;;;11.73;9.77;;;;;;;16.17;44.62;100059.30;1760749;80;21463;-69
2021/04/15 11:44:47;;;;;;;11.30;9.07;;;;;;;16.13;44.62;100052.14;1765198;79;21197;-69
2021/04/15 11:47:27;;;;;;;10.93;9.40;;;;;;;16.11;44.72;100057.83;1697147;82;21702;-69
2021/04/15 11:50:15;;;;;;;9.37;8.37;;;;;;;16.09;44.69;100053.84;1727427;82;21652;-69
2021/04/15 11:52:46;;;;;;;11.60;8.70;;;;;;;16.07;44.39;100052.02;1716876;82;21181;-69
2021/04/15 11:55:30;;;;;;;10.47;8.37;;;;;;;16.02;44.73;100052.12;1762429;80;22248;-69
2021/04/15 11:58:08;;;;;;;11.23;8.30;;;;;;;16.09;45.12;100049.27;1762254;80;21637;-69
2021/04/15 12:00:40;;;;;;;11.07;8.10;;;;;;;16.22;45.18;100042.75;1705566;83;21191;-69
2021/04/15 12:03:15;;;;;;;14.68;8.78;;;;;;;16.36;45.21;100044.84;1756951;80;21204;-69
2021/04/15 12:05:48;;;;;;;12.27;8.57;;;;;;;16.44;44.70;100044.64;1752476;80;21188;-70
2021/04/15 12:08:27;;;;;;;13.67;8.67;;;;;;;16.48;44.87;100044.27;1756333;80;21550;-69
2021/04/15 12:11:24;;;;;;;13.30;9.13;;;;;;;16.54;45.11;100037.09;1746569;80;21391;-69
2021/04/15 12:13:58;;;;;;;12.50;8.07;;;;;;;16.60;45.10;100037.76;1702614;83;21201;-69
2021/04/15 12:16:55;;;;;;;15.10;8.47;;;;;;;16.68;44.65;100036.98;1757379;80;21212;-70
2021/04/15 12:19:51;;;;;;;14.63;8.27;;;;;;;16.75;44.35;100039.27;1754301;80;21173;-69
2021/04/15 12:22:37;;;;;;;13.70;7.30;;;;;;;16.84;44.34;100044.16;1741990;80;21329;-69
2021/04/15 12:25:36;;;;;;;12.93;7.63;;;;;;;16.91;43.99;100039.10;1758884;80;21221;-73
2021/04/15 12:28:26;;;;;;;12.33;7.40;;;;;;;16.98;43.90;100036.77;1756011;80;21188;-74
2021/04/15 12:31:36;;;;;;;14.00;7.27;;;;;;;17.08;43.10;100037.84;1747955;80;21144;-74
2021/04/15 12:34:38;;;;;;;15.07;6.90;;;;;;;17.19;42.53;100026.75;1756877;80;21141;-73
2021/04/15 12:37:31;;;;;;;12.07;5.97;;;;;;;17.25;41.84;100026.28;1756947;80;21200;-73